sensor_id;sensor_type;location;lat;lon;timestamp;P1;durP1;ratioP1;P2;durP2;ratioP2
9775;SDS011;4927;52.472;13.108;2022-10-04T00:00:40;8.32;;;2.42;;
9775;SDS011;4927;52.472;13.108;2022-10-04T00:05:47;4.78;;;2.03;;
9775;SDS011;4927;52.472;13.108;2022-10-04T00:11:00;8.02;;;2.60;;
9775;SDS011;4927;52.472;13.108;2022-10-04T00:16:06;6.03;;;2.20;;
9775;SDS011;4927;52.472;13.108;2022-10-04T00:21:12;6.85;;;2.72;;
9775;SDS011;4927;52.472;13.108;2022-10-04T00:37:31;5.12;;;2.20;;
9775;SDS011;4927;52.472;13.108;2022-10-04T00:42:40;8.25;;;2.60;;
9775;SDS011;4927;52.472;13.108;2022-10-04T00:47:56;8.40;;;2.80;;
9775;SDS011;4927;52.472;13.108;2022-10-04T00:53:27;6.40;;;2.30;;
9775;SDS011;4927;52.472;13.108;2022-10-04T00:58:32;7.90;;;2.70;;
9775;SDS011;4927;52.472;13.108;2022-10-04T01:03:36;10.77;;;3.00;;
9775;SDS011;4927;52.472;13.108;2022-10-04T01:08:44;8.50;;;2.40;;
9775;SDS011;4927;52.472;13.108;2022-10-04T01:13:52;9.50;;;2.70;;
9775;SDS011;4927;52.472;13.108;2022-10-04T01:24:18;9.30;;;2.70;;
9775;SDS011;4927;52.472;13.108;2022-10-04T01:29:24;6.50;;;2.35;;
9775;SDS011;4927;52.472;13.108;2022-10-04T01:34:30;3.60;;;2.40;;
9775;SDS011;4927;52.472;13.108;2022-10-04T01:39:36;8.80;;;2.55;;
9775;SDS011;4927;52.472;13.108;2022-10-04T01:44:49;6.97;;;2.67;;
9775;SDS011;4927;52.472;13.108;2022-10-04T01:49:53;7.32;;;2.30;;
9775;SDS011;4927;52.472;13.108;2022-10-04T01:55:00;5.60;;;2.20;;
9775;SDS011;4927;52.472;13.108;2022-10-04T02:00:09;4.20;;;1.90;;
9775;SDS011;4927;52.472;13.108;2022-10-04T02:05:18;8.02;;;2.50;;
9775;SDS011;4927;52.472;13.108;2022-10-04T02:10:24;9.20;;;2.50;;
9775;SDS011;4927;52.472;13.108;2022-10-04T02:15:30;6.90;;;2.50;;
9775;SDS011;4927;52.472;13.108;2022-10-04T02:20:35;7.93;;;2.17;;
9775;SDS011;4927;52.472;13.108;2022-10-04T02:25:38;6.82;;;2.45;;
9775;SDS011;4927;52.472;13.108;2022-10-04T02:30:46;6.68;;;2.40;;
9775;SDS011;4927;52.472;13.108;2022-10-04T02:35:52;7.10;;;2.40;;
9775;SDS011;4927;52.472;13.108;2022-10-04T02:41:00;9.80;;;2.60;;
9775;SDS011;4927;52.472;13.108;2022-10-04T02:46:13;6.95;;;2.25;;
9775;SDS011;4927;52.472;13.108;2022-10-04T02:51:21;11.70;;;2.75;;
9775;SDS011;4927;52.472;13.108;2022-10-04T02:56:26;4.60;;;2.40;;
9775;SDS011;4927;52.472;13.108;2022-10-04T03:01:40;7.95;;;2.80;;
9775;SDS011;4927;52.472;13.108;2022-10-04T03:06:47;5.40;;;2.25;;
9775;SDS011;4927;52.472;13.108;2022-10-04T03:11:53;6.40;;;2.30;;
9775;SDS011;4927;52.472;13.108;2022-10-04T03:17:00;12.82;;;3.17;;
9775;SDS011;4927;52.472;13.108;2022-10-04T03:22:07;7.28;;;2.30;;
9775;SDS011;4927;52.472;13.108;2022-10-04T03:27:13;9.90;;;2.40;;
9775;SDS011;4927;52.472;13.108;2022-10-04T03:32:19;7.37;;;2.55;;
9775;SDS011;4927;52.472;13.108;2022-10-04T03:37:26;5.20;;;2.50;;
9775;SDS011;4927;52.472;13.108;2022-10-04T03:42:32;4.75;;;2.35;;
9775;SDS011;4927;52.472;13.108;2022-10-04T03:47:39;6.07;;;2.62;;
9775;SDS011;4927;52.472;13.108;2022-10-04T03:52:47;9.85;;;2.60;;
9775;SDS011;4927;52.472;13.108;2022-10-04T03:57:54;5.00;;;2.10;;
9775;SDS011;4927;52.472;13.108;2022-10-04T04:03:04;7.12;;;2.15;;
9775;SDS011;4927;52.472;13.108;2022-10-04T04:08:12;9.70;;;2.30;;
9775;SDS011;4927;52.472;13.108;2022-10-04T04:13:28;5.82;;;2.50;;
9775;SDS011;4927;52.472;13.108;2022-10-04T04:18:47;4.75;;;2.50;;
9775;SDS011;4927;52.472;13.108;2022-10-04T04:23:59;3.90;;;2.22;;
9775;SDS011;4927;52.472;13.108;2022-10-04T04:29:05;3.75;;;1.98;;
9775;SDS011;4927;52.472;13.108;2022-10-04T04:34:17;4.05;;;2.10;;
9775;SDS011;4927;52.472;13.108;2022-10-04T04:39:25;2.78;;;2.12;;
9775;SDS011;4927;52.472;13.108;2022-10-04T04:44:38;6.28;;;2.50;;
9775;SDS011;4927;52.472;13.108;2022-10-04T04:49:44;7.28;;;2.40;;
9775;SDS011;4927;52.472;13.108;2022-10-04T04:54:50;3.10;;;2.40;;
9775;SDS011;4927;52.472;13.108;2022-10-04T04:59:57;7.15;;;2.45;;
9775;SDS011;4927;52.472;13.108;2022-10-04T05:05:16;6.53;;;2.60;;
9775;SDS011;4927;52.472;13.108;2022-10-04T05:10:28;3.28;;;2.30;;
9775;SDS011;4927;52.472;13.108;2022-10-04T05:15:34;3.35;;;2.42;;
9775;SDS011;4927;52.472;13.108;2022-10-04T05:20:41;6.20;;;2.53;;
9775;SDS011;4927;52.472;13.108;2022-10-04T05:25:46;2.80;;;2.50;;
9775;SDS011;4927;52.472;13.108;2022-10-04T05:31:03;6.00;;;2.87;;
9775;SDS011;4927;52.472;13.108;2022-10-04T05:36:35;8.82;;;3.00;;
9775;SDS011;4927;52.472;13.108;2022-10-04T05:41:47;4.05;;;2.75;;
9775;SDS011;4927;52.472;13.108;2022-10-04T05:46:56;4.15;;;2.60;;
9775;SDS011;4927;52.472;13.108;2022-10-04T05:52:04;6.32;;;3.08;;
9775;SDS011;4927;52.472;13.108;2022-10-04T05:57:12;5.30;;;3.10;;
9775;SDS011;4927;52.472;13.108;2022-10-04T06:07:56;5.10;;;2.80;;
9775;SDS011;4927;52.472;13.108;2022-10-04T06:24:17;5.78;;;2.90;;
9775;SDS011;4927;52.472;13.108;2022-10-04T06:29:26;7.90;;;3.20;;
9775;SDS011;4927;52.472;13.108;2022-10-04T06:34:35;2.97;;;2.78;;
9775;SDS011;4927;52.472;13.108;2022-10-04T06:39:50;7.32;;;3.00;;
9775;SDS011;4927;52.472;13.108;2022-10-04T06:45:15;5.20;;;2.90;;
9775;SDS011;4927;52.472;13.108;2022-10-04T06:50:24;5.90;;;3.10;;
9775;SDS011;4927;52.472;13.108;2022-10-04T07:01:13;4.20;;;3.80;;
9775;SDS011;4927;52.472;13.108;2022-10-04T07:06:21;8.05;;;4.80;;
9775;SDS011;4927;52.472;13.108;2022-10-04T07:11:36;5.97;;;5.20;;
9775;SDS011;4927;52.472;13.108;2022-10-04T07:16:44;5.00;;;4.50;;
9775;SDS011;4927;52.472;13.108;2022-10-04T07:22:12;10.32;;;5.43;;
9775;SDS011;4927;52.472;13.108;2022-10-04T07:27:20;10.02;;;5.10;;
9775;SDS011;4927;52.472;13.108;2022-10-04T07:32:27;5.62;;;4.55;;
9775;SDS011;4927;52.472;13.108;2022-10-04T07:37:33;6.85;;;4.50;;
9775;SDS011;4927;52.472;13.108;2022-10-04T07:42:45;8.38;;;4.20;;
9775;SDS011;4927;52.472;13.108;2022-10-04T07:47:58;8.50;;;4.10;;
9775;SDS011;4927;52.472;13.108;2022-10-04T07:53:15;5.22;;;3.45;;
9775;SDS011;4927;52.472;13.108;2022-10-04T07:58:25;3.65;;;3.30;;
9775;SDS011;4927;52.472;13.108;2022-10-04T08:03:44;4.55;;;4.12;;
9775;SDS011;4927;52.472;13.108;2022-10-04T08:08:53;6.25;;;3.47;;
9775;SDS011;4927;52.472;13.108;2022-10-04T08:14:21;3.35;;;3.15;;
9775;SDS011;4927;52.472;13.108;2022-10-04T08:19:38;3.17;;;2.85;;
9775;SDS011;4927;52.472;13.108;2022-10-04T08:24:58;5.55;;;3.20;;
9775;SDS011;4927;52.472;13.108;2022-10-04T08:30:11;5.50;;;3.10;;
9775;SDS011;4927;52.472;13.108;2022-10-04T08:51:41;3.83;;;3.20;;
9775;SDS011;4927;52.472;13.108;2022-10-04T09:02:24;3.28;;;2.95;;
9775;SDS011;4927;52.472;13.108;2022-10-04T09:07:51;3.60;;;3.00;;
9775;SDS011;4927;52.472;13.108;2022-10-04T09:12:57;4.18;;;3.40;;
9775;SDS011;4927;52.472;13.108;2022-10-04T09:23:38;3.50;;;3.30;;
9775;SDS011;4927;52.472;13.108;2022-10-04T09:29:04;3.70;;;3.40;;
9775;SDS011;4927;52.472;13.108;2022-10-04T09:34:19;5.32;;;3.33;;
9775;SDS011;4927;52.472;13.108;2022-10-04T09:39:34;3.10;;;2.90;;
9775;SDS011;4927;52.472;13.108;2022-10-04T09:50:27;8.80;;;3.30;;
9775;SDS011;4927;52.472;13.108;2022-10-04T09:55:40;3.40;;;3.10;;
9775;SDS011;4927;52.472;13.108;2022-10-04T10:01:07;3.10;;;2.40;;
9775;SDS011;4927;52.472;13.108;2022-10-04T10:06:32;6.45;;;3.03;;
9775;SDS011;4927;52.472;13.108;2022-10-04T10:11:45;7.37;;;2.58;;
9775;SDS011;4927;52.472;13.108;2022-10-04T10:27:48;5.32;;;2.10;;
9775;SDS011;4927;52.472;13.108;2022-10-04T10:38:40;2.60;;;2.00;;
9775;SDS011;4927;52.472;13.108;2022-10-04T10:43:54;8.70;;;2.20;;
9775;SDS011;4927;52.472;13.108;2022-10-04T10:54:37;8.23;;;2.40;;
9775;SDS011;4927;52.472;13.108;2022-10-04T11:05:02;5.85;;;2.10;;
9775;SDS011;4927;52.472;13.108;2022-10-04T11:16:05;6.53;;;2.15;;
9775;SDS011;4927;52.472;13.108;2022-10-04T11:21:38;5.75;;;1.80;;
9775;SDS011;4927;52.472;13.108;2022-10-04T11:37:38;6.60;;;2.05;;
9775;SDS011;4927;52.472;13.108;2022-10-04T11:49:05;5.85;;;2.10;;
9775;SDS011;4927;52.472;13.108;2022-10-04T12:05:25;7.20;;;2.35;;
9775;SDS011;4927;52.472;13.108;2022-10-04T12:10:35;5.95;;;2.00;;
9775;SDS011;4927;52.472;13.108;2022-10-04T12:15:46;6.43;;;2.10;;
9775;SDS011;4927;52.472;13.108;2022-10-04T12:21:20;4.87;;;1.60;;
9775;SDS011;4927;52.472;13.108;2022-10-04T12:26:28;4.90;;;1.73;;
9775;SDS011;4927;52.472;13.108;2022-10-04T12:31:34;5.28;;;1.75;;
9775;SDS011;4927;52.472;13.108;2022-10-04T12:42:29;4.57;;;1.70;;
9775;SDS011;4927;52.472;13.108;2022-10-04T12:47:44;3.40;;;1.62;;
9775;SDS011;4927;52.472;13.108;2022-10-04T12:53:12;3.65;;;1.70;;
9775;SDS011;4927;52.472;13.108;2022-10-04T12:58:25;4.43;;;1.70;;
9775;SDS011;4927;52.472;13.108;2022-10-04T13:03:36;3.28;;;1.35;;
9775;SDS011;4927;52.472;13.108;2022-10-04T13:14:15;1.60;;;1.50;;
9775;SDS011;4927;52.472;13.108;2022-10-04T13:19:34;4.97;;;1.58;;
9775;SDS011;4927;52.472;13.108;2022-10-04T13:24:49;2.80;;;1.40;;
9775;SDS011;4927;52.472;13.108;2022-10-04T13:35:33;2.97;;;1.30;;
9775;SDS011;4927;52.472;13.108;2022-10-04T13:40:43;2.90;;;1.25;;
9775;SDS011;4927;52.472;13.108;2022-10-04T13:46:03;3.60;;;1.42;;
9775;SDS011;4927;52.472;13.108;2022-10-04T13:56:47;3.92;;;1.50;;
9775;SDS011;4927;52.472;13.108;2022-10-04T14:02:03;1.70;;;1.20;;
9775;SDS011;4927;52.472;13.108;2022-10-04T14:07:27;3.25;;;1.40;;
9775;SDS011;4927;52.472;13.108;2022-10-04T14:12:38;4.10;;;1.40;;
9775;SDS011;4927;52.472;13.108;2022-10-04T14:28:43;3.50;;;1.15;;
9775;SDS011;4927;52.472;13.108;2022-10-04T14:33:55;7.18;;;5.15;;
9775;SDS011;4927;52.472;13.108;2022-10-04T14:44:35;4.35;;;1.30;;
9775;SDS011;4927;52.472;13.108;2022-10-04T14:49:48;3.80;;;1.98;;
9775;SDS011;4927;52.472;13.108;2022-10-04T15:00:22;1.20;;;1.00;;
9775;SDS011;4927;52.472;13.108;2022-10-04T15:05:56;3.60;;;1.40;;
9775;SDS011;4927;52.472;13.108;2022-10-04T15:11:15;1.85;;;1.40;;
9775;SDS011;4927;52.472;13.108;2022-10-04T15:27:43;3.25;;;1.30;;
9775;SDS011;4927;52.472;13.108;2022-10-04T15:38:20;2.67;;;1.17;;
9775;SDS011;4927;52.472;13.108;2022-10-04T15:43:41;2.45;;;2.30;;
9775;SDS011;4927;52.472;13.108;2022-10-04T15:48:53;3.45;;;1.60;;
9775;SDS011;4927;52.472;13.108;2022-10-04T15:59:33;1.62;;;1.25;;
9775;SDS011;4927;52.472;13.108;2022-10-04T16:10:16;2.40;;;2.20;;
9775;SDS011;4927;52.472;13.108;2022-10-04T16:15:31;3.60;;;3.40;;
9775;SDS011;4927;52.472;13.108;2022-10-04T16:20:47;3.00;;;2.80;;
9775;SDS011;4927;52.472;13.108;2022-10-04T16:25:51;2.42;;;1.90;;
9775;SDS011;4927;52.472;13.108;2022-10-04T16:36:20;2.62;;;2.42;;
9775;SDS011;4927;52.472;13.108;2022-10-04T16:41:28;2.40;;;1.90;;
9775;SDS011;4927;52.472;13.108;2022-10-04T16:46:35;1.73;;;1.40;;
9775;SDS011;4927;52.472;13.108;2022-10-04T16:51:53;2.75;;;2.65;;
9775;SDS011;4927;52.472;13.108;2022-10-04T16:57:23;1.60;;;1.40;;
9775;SDS011;4927;52.472;13.108;2022-10-04T17:02:52;1.80;;;1.42;;
9775;SDS011;4927;52.472;13.108;2022-10-04T17:08:01;2.00;;;1.60;;
9775;SDS011;4927;52.472;13.108;2022-10-04T17:13:24;3.17;;;1.50;;
9775;SDS011;4927;52.472;13.108;2022-10-04T17:23:55;2.50;;;2.30;;
9775;SDS011;4927;52.472;13.108;2022-10-04T17:35:02;4.25;;;2.60;;
9775;SDS011;4927;52.472;13.108;2022-10-04T17:57:14;3.50;;;3.30;;
9775;SDS011;4927;52.472;13.108;2022-10-04T18:02:22;6.50;;;6.00;;
9775;SDS011;4927;52.472;13.108;2022-10-04T18:07:33;4.62;;;4.22;;
9775;SDS011;4927;52.472;13.108;2022-10-04T18:12:42;6.82;;;4.18;;
9775;SDS011;4927;52.472;13.108;2022-10-04T18:17:47;4.45;;;4.20;;
9775;SDS011;4927;52.472;13.108;2022-10-04T18:22:56;4.00;;;3.80;;
9775;SDS011;4927;52.472;13.108;2022-10-04T18:28:12;4.40;;;4.00;;
9775;SDS011;4927;52.472;13.108;2022-10-04T18:33:23;4.00;;;3.80;;
9775;SDS011;4927;52.472;13.108;2022-10-04T18:38:30;4.37;;;3.97;;
9775;SDS011;4927;52.472;13.108;2022-10-04T18:43:39;4.30;;;4.00;;
9775;SDS011;4927;52.472;13.108;2022-10-04T18:48:54;4.85;;;4.35;;
9775;SDS011;4927;52.472;13.108;2022-10-04T18:54:05;7.50;;;6.90;;
9775;SDS011;4927;52.472;13.108;2022-10-04T18:59:29;6.03;;;5.60;;
9775;SDS011;4927;52.472;13.108;2022-10-04T19:04:56;4.83;;;4.63;;
9775;SDS011;4927;52.472;13.108;2022-10-04T19:10:14;4.55;;;4.25;;
9775;SDS011;4927;52.472;13.108;2022-10-04T19:20:50;8.32;;;5.05;;
9775;SDS011;4927;52.472;13.108;2022-10-04T19:25:56;6.07;;;4.70;;
9775;SDS011;4927;52.472;13.108;2022-10-04T19:52:43;4.62;;;4.20;;
9775;SDS011;4927;52.472;13.108;2022-10-04T19:57:52;6.78;;;4.28;;
9775;SDS011;4927;52.472;13.108;2022-10-04T20:02:57;6.12;;;3.40;;
9775;SDS011;4927;52.472;13.108;2022-10-04T20:08:08;3.72;;;3.30;;
9775;SDS011;4927;52.472;13.108;2022-10-04T20:13:17;3.35;;;3.15;;
9775;SDS011;4927;52.472;13.108;2022-10-04T20:23:47;3.40;;;3.10;;
9775;SDS011;4927;52.472;13.108;2022-10-04T20:28:52;3.85;;;3.55;;
9775;SDS011;4927;52.472;13.108;2022-10-04T20:45:01;3.05;;;2.85;;
9775;SDS011;4927;52.472;13.108;2022-10-04T20:50:25;3.90;;;3.60;;
9775;SDS011;4927;52.472;13.108;2022-10-04T20:55:31;4.00;;;3.50;;
9775;SDS011;4927;52.472;13.108;2022-10-04T21:00:37;6.85;;;3.53;;
9775;SDS011;4927;52.472;13.108;2022-10-04T21:11:08;4.10;;;3.30;;
9775;SDS011;4927;52.472;13.108;2022-10-04T21:16:32;5.85;;;3.40;;
9775;SDS011;4927;52.472;13.108;2022-10-04T21:21:47;3.70;;;3.40;;
9775;SDS011;4927;52.472;13.108;2022-10-04T21:26:57;4.15;;;3.80;;
9775;SDS011;4927;52.472;13.108;2022-10-04T21:32:04;9.55;;;3.60;;
9775;SDS011;4927;52.472;13.108;2022-10-04T21:37:10;3.00;;;2.80;;
9775;SDS011;4927;52.472;13.108;2022-10-04T21:42:20;6.18;;;3.90;;
9775;SDS011;4927;52.472;13.108;2022-10-04T21:47:27;4.10;;;3.10;;
9775;SDS011;4927;52.472;13.108;2022-10-04T21:52:33;7.47;;;3.30;;
9775;SDS011;4927;52.472;13.108;2022-10-04T21:57:40;10.45;;;3.40;;
9775;SDS011;4927;52.472;13.108;2022-10-04T22:02:47;3.10;;;2.90;;
9775;SDS011;4927;52.472;13.108;2022-10-04T22:07:51;3.80;;;3.60;;
9775;SDS011;4927;52.472;13.108;2022-10-04T22:12:57;6.30;;;3.55;;
9775;SDS011;4927;52.472;13.108;2022-10-04T22:18:04;6.20;;;3.53;;
9775;SDS011;4927;52.472;13.108;2022-10-04T22:23:15;3.60;;;3.30;;
9775;SDS011;4927;52.472;13.108;2022-10-04T22:28:23;5.85;;;3.10;;
9775;SDS011;4927;52.472;13.108;2022-10-04T22:33:31;4.80;;;3.60;;
9775;SDS011;4927;52.472;13.108;2022-10-04T22:38:36;3.50;;;3.30;;
9775;SDS011;4927;52.472;13.108;2022-10-04T22:43:42;3.80;;;3.50;;
9775;SDS011;4927;52.472;13.108;2022-10-04T22:48:48;3.50;;;3.20;;
9775;SDS011;4927;52.472;13.108;2022-10-04T22:53:55;4.20;;;3.37;;
9775;SDS011;4927;52.472;13.108;2022-10-04T22:59:02;4.07;;;3.78;;
9775;SDS011;4927;52.472;13.108;2022-10-04T23:04:11;3.25;;;3.05;;
9775;SDS011;4927;52.472;13.108;2022-10-04T23:09:18;4.90;;;3.53;;
9775;SDS011;4927;52.472;13.108;2022-10-04T23:14:24;3.30;;;3.20;;
9775;SDS011;4927;52.472;13.108;2022-10-04T23:19:31;3.75;;;3.15;;
9775;SDS011;4927;52.472;13.108;2022-10-04T23:24:37;5.40;;;3.20;;
9775;SDS011;4927;52.472;13.108;2022-10-04T23:29:44;3.70;;;3.47;;
9775;SDS011;4927;52.472;13.108;2022-10-04T23:34:51;3.40;;;3.20;;
9775;SDS011;4927;52.472;13.108;2022-10-04T23:39:57;4.35;;;3.95;;
9775;SDS011;4927;52.472;13.108;2022-10-04T23:45:07;4.33;;;4.00;;
9775;SDS011;4927;52.472;13.108;2022-10-04T23:50:20;4.17;;;3.87;;
9775;SDS011;4927;52.472;13.108;2022-10-04T23:55:32;3.80;;;3.70;;
